Ty Lotus — DSNU7 — position and weather

sailwx.info

Track history (hours):
 
Tides and Currents Weather Stations Pressure Air Temp Water Temp Dewpoint Dewpoint Depression Visibility Wind Speed Wind Dir Waves Ship Positions

Ty Lotus

Last reported at 2015-Jul-02 11:33 UTC. Time now 2015-Jul-03 23:40 UTC.
Position N 38°07' E 122°40'.

Length 82 m; draft 6.3 m.

Type: Cargo ship. MMSI: 440324000.

Date/timePositionNaut miles runAvg speedWind from/ knotsBaromVisibWave heightAir tempDewpointWater temp
2015-Jul-02 11:33N 38°07' E 122°40'10 9.4
2015-Jul-02 10:32N 38°09' E 122°29'21 9.6
2015-Jul-02 08:19N 38°15' E 122°02'11 9.7
2015-Jul-02 07:10N 38°18' E 121°49'15 9.3
2015-Jul-02 05:32N 38°22' E 121°30'172 9.5
2015-Jul-01 11:27N 38°57' E 117°54'7 8.3
2015-Jul-01 10:34N 38°59' E 117°45'0 0.0
2015-Jul-01 09:29N 38°59' E 117°45'0 0.0
2015-Jul-01 08:29N 38°59' E 117°45'0 0.0
2015-Jul-01 07:29N 38°59' E 117°45'0 0.0
2015-Jul-01 06:17N 38°59' E 117°45'0 0.0
2015-Jul-01 05:29N 38°59' E 117°45'0 0.0
2015-Jul-01 04:29N 38°59' E 117°45'0 0.0
2015-Jul-01 03:29N 38°59' E 117°45'0 0.0
2015-Jul-01 02:29N 38°59' E 117°45'0 0.0
2015-Jul-01 01:23N 38°59' E 117°45'0 0.0
2015-Jul-01 00:29N 38°59' E 117°45'0 0.0
2015-Jun-30 23:29N 38°59' E 117°45'0 0.0
2015-Jun-30 22:14N 38°59' E 117°45'0 0.0
2015-Jun-30 21:05N 38°59' E 117°45'0 0.1
2015-Jun-30 20:29N 38°59' E 117°45'0 0.0
2015-Jun-30 19:14N 38°59' E 117°45'0 0.1
2015-Jun-30 18:32N 38°59' E 117°45'0 0.0
2015-Jun-30 17:32N 38°59' E 117°45'0 0.0
2015-Jun-30 16:20N 38°59' E 117°45'0 0.0
2015-Jun-30 15:32N 38°59' E 117°45'0 0.0
2015-Jun-30 14:33N 38°59' E 117°45'0 0.5
2015-Jun-30 13:33N 38°59' E 117°45'9 8.5
2015-Jun-30 12:31N 38°57' E 117°57'4 0.2
2015-Jun-29 15:23N 38°55' E 118°01'0 0.0
2015-Jun-29 14:23N 38°55' E 118°01'0 0.0
2015-Jun-29 13:18N 38°55' E 118°01'0 0.0
2015-Jun-29 10:31N 38°55' E 118°01'0 0.0
2015-Jun-29 07:07N 38°55' E 118°01'0 0.1
2015-Jun-29 06:19N 38°55' E 118°01'  
2015-Jun-26 15:05N 38°55' E 118°01'0 0.1
2015-Jun-26 14:24N 38°55' E 118°01'8 1.6
2015-Jun-26 09:33N 38°58' E 117°51'5 4.0
2015-Jun-26 08:21N 38°59' E 117°45'0 0.0
2015-Jun-26 07:21N 38°59' E 117°45'0 0.0
2015-Jun-26 06:21N 38°59' E 117°45'0 0.0
2015-Jun-26 05:33N 38°59' E 117°45'0 0.0
2015-Jun-26 04:33N 38°59' E 117°45'0 0.0
2015-Jun-26 03:31N 38°59' E 117°45'0 0.0
2015-Jun-26 02:28N 38°59' E 117°45'0 0.0
2015-Jun-26 01:30N 38°59' E 117°45'0 0.0
2015-Jun-26 00:29N 38°59' E 117°45'0 0.0
2015-Jun-25 23:24N 38°59' E 117°45'0 0.0
2015-Jun-25 22:24N 38°59' E 117°45'0 0.0
2015-Jun-25 21:23N 38°59' E 117°45'1 1.0
2015-Jun-25 20:33N 38°58' E 117°46'189 7.6
2015-Jun-24 19:33N 38°22' E 121°44'  
Track history (hours):
 
Tides and Currents Weather Stations Pressure Air Temp Water Temp Dewpoint Dewpoint Depression Visibility Wind Speed Wind Dir Waves Ship Positions

Ty Lotus

Last reported at 2015-Jul-02 11:33 UTC. Time now 2015-Jul-03 23:40 UTC.
Position N 38°07' E 122°40'.

Length 82 m; draft 6.3 m.

Type: Cargo ship. MMSI: 440324000.

Date/timePositionNaut miles runAvg speedWind from/ knotsBaromVisibWave heightAir tempDewpointWater temp
2015-Jul-02 11:33N 38°07' E 122°40'10 9.4
2015-Jul-02 10:32N 38°09' E 122°29'21 9.6
2015-Jul-02 08:19N 38°15' E 122°02'11 9.7
2015-Jul-02 07:10N 38°18' E 121°49'15 9.3
2015-Jul-02 05:32N 38°22' E 121°30'172 9.5
2015-Jul-01 11:27N 38°57' E 117°54'7 8.3
2015-Jul-01 10:34N 38°59' E 117°45'0 0.0
2015-Jul-01 09:29N 38°59' E 117°45'0 0.0
2015-Jul-01 08:29N 38°59' E 117°45'0 0.0
2015-Jul-01 07:29N 38°59' E 117°45'0 0.0
2015-Jul-01 06:17N 38°59' E 117°45'0 0.0
2015-Jul-01 05:29N 38°59' E 117°45'0 0.0
2015-Jul-01 04:29N 38°59' E 117°45'0 0.0
2015-Jul-01 03:29N 38°59' E 117°45'0 0.0
2015-Jul-01 02:29N 38°59' E 117°45'0 0.0
2015-Jul-01 01:23N 38°59' E 117°45'0 0.0
2015-Jul-01 00:29N 38°59' E 117°45'0 0.0
2015-Jun-30 23:29N 38°59' E 117°45'0 0.0
2015-Jun-30 22:14N 38°59' E 117°45'0 0.0
2015-Jun-30 21:05N 38°59' E 117°45'0 0.1
2015-Jun-30 20:29N 38°59' E 117°45'0 0.0
2015-Jun-30 19:14N 38°59' E 117°45'0 0.1
2015-Jun-30 18:32N 38°59' E 117°45'0 0.0
2015-Jun-30 17:32N 38°59' E 117°45'0 0.0
2015-Jun-30 16:20N 38°59' E 117°45'0 0.0
2015-Jun-30 15:32N 38°59' E 117°45'0 0.0
2015-Jun-30 14:33N 38°59' E 117°45'0 0.5
2015-Jun-30 13:33N 38°59' E 117°45'9 8.5
2015-Jun-30 12:31N 38°57' E 117°57'4 0.2
2015-Jun-29 15:23N 38°55' E 118°01'0 0.0
2015-Jun-29 14:23N 38°55' E 118°01'0 0.0
2015-Jun-29 13:18N 38°55' E 118°01'0 0.0
2015-Jun-29 10:31N 38°55' E 118°01'0 0.0
2015-Jun-29 07:07N 38°55' E 118°01'0 0.1
2015-Jun-29 06:19N 38°55' E 118°01'  
2015-Jun-26 15:05N 38°55' E 118°01'0 0.1
2015-Jun-26 14:24N 38°55' E 118°01'8 1.6
2015-Jun-26 09:33N 38°58' E 117°51'5 4.0
2015-Jun-26 08:21N 38°59' E 117°45'0 0.0
2015-Jun-26 07:21N 38°59' E 117°45'0 0.0
2015-Jun-26 06:21N 38°59' E 117°45'0 0.0
2015-Jun-26 05:33N 38°59' E 117°45'0 0.0
2015-Jun-26 04:33N 38°59' E 117°45'0 0.0
2015-Jun-26 03:31N 38°59' E 117°45'0 0.0
2015-Jun-26 02:28N 38°59' E 117°45'0 0.0
2015-Jun-26 01:30N 38°59' E 117°45'0 0.0
2015-Jun-26 00:29N 38°59' E 117°45'0 0.0
2015-Jun-25 23:24N 38°59' E 117°45'0 0.0
2015-Jun-25 22:24N 38°59' E 117°45'0 0.0
2015-Jun-25 21:23N 38°59' E 117°45'1 1.0
2015-Jun-25 20:33N 38°58' E 117°46'189 7.6
2015-Jun-24 19:33N 38°22' E 121°44'  

Dump ship's entire track history